createdAt,value
2017-12-25T00:00:53.890Z,28.57
2017-12-25T00:03:22.480Z,37.83
2017-12-25T00:05:51.068Z,38.50
2017-12-25T00:08:19.853Z,41.57
2017-12-25T00:10:48.492Z,43.50
2017-12-25T00:13:17.949Z,43.53
2017-12-25T00:15:46.781Z,41.60
2017-12-25T00:18:16.243Z,41.63
2017-12-25T00:20:44.928Z,45.53
2017-12-25T00:23:13.811Z,43.30
2017-12-25T00:25:42.497Z,42.87
2017-12-25T00:28:12.066Z,46.37
2017-12-25T00:30:40.899Z,52.37
2017-12-25T00:33:09.524Z,58.80
2017-12-25T00:35:38.986Z,57.97
2017-12-25T00:38:07.937Z,52.63
2017-12-25T00:40:36.664Z,45.60
2017-12-25T00:43:05.349Z,39.47
2017-12-25T00:45:34.291Z,35.70
2017-12-25T00:48:03.684Z,34.40
2017-12-25T00:50:33.151Z,30.93
2017-12-25T00:53:01.994Z,26.37
2017-12-25T00:55:30.645Z,24.73
2017-12-25T00:57:59.209Z,21.43
2017-12-25T01:00:28.291Z,18.73
2017-12-25T01:02:56.988Z,15.97
2017-12-25T01:05:25.680Z,14.40
2017-12-25T01:07:54.456Z,13.43
2017-12-25T01:10:23.092Z,15.33
2017-12-25T01:12:52.553Z,13.60
2017-12-25T01:15:21.227Z,14.33
2017-12-25T01:17:49.918Z,14.17
2017-12-25T01:20:18.611Z,14.80
2017-12-25T01:22:47.457Z,16.20
2017-12-25T01:25:16.124Z,15.87
2017-12-25T01:27:45.590Z,20.07
2017-12-25T01:30:14.374Z,23.87
2017-12-25T01:32:43.060Z,19.40
2017-12-25T01:35:11.746Z,29.97
2017-12-25T01:37:40.531Z,29.80
2017-12-25T01:40:09.116Z,24.10
2017-12-25T01:42:37.749Z,22.10
2017-12-25T01:45:07.263Z,20.10
2017-12-25T01:47:36.712Z,22.63
2017-12-25T01:50:07.141Z,25.83
2017-12-25T01:52:35.816Z,23.97
2017-12-25T01:55:04.613Z,22.47
2017-12-25T02:00:57.341Z,22.40
2017-12-25T02:03:26.175Z,18.80
2017-12-25T02:09:01.332Z,22.00
2017-12-25T02:11:29.909Z,22.83
2017-12-25T02:13:58.558Z,25.80
2017-12-25T02:16:27.280Z,22.93
2017-12-25T02:18:55.964Z,24.73
2017-12-25T02:21:24.653Z,23.80
2017-12-25T02:23:53.829Z,21.73
2017-12-25T02:26:22.496Z,17.90
2017-12-25T02:28:51.225Z,18.07
2017-12-25T02:31:19.910Z,20.63
2017-12-25T02:33:48.550Z,20.53
2017-12-25T02:36:17.995Z,19.67
2017-12-25T02:38:46.793Z,24.47
2017-12-25T02:41:15.367Z,25.03
2017-12-25T02:43:43.996Z,23.70
2017-12-25T02:46:13.614Z,28.33
2017-12-25T02:48:43.070Z,27.90
2017-12-25T02:51:11.756Z,29.93
2017-12-25T02:53:40.572Z,29.40
2017-12-25T02:56:09.981Z,29.33
2017-12-25T02:58:38.674Z,28.53
2017-12-25T03:01:08.146Z,22.67
2017-12-25T03:03:36.919Z,14.00
2017-12-25T03:06:05.456Z,12.47
2017-12-25T03:08:35.113Z,14.00
2017-12-25T03:11:03.740Z,15.63
2017-12-25T03:13:33.199Z,15.83
2017-12-25T03:16:02.899Z,24.00
2017-12-25T03:18:31.590Z,22.80
2017-12-25T03:21:00.233Z,26.93
2017-12-25T03:23:29.729Z,23.80
2017-12-25T03:25:59.195Z,25.00
2017-12-25T03:28:27.880Z,28.90
2017-12-25T03:30:56.480Z,22.80
2017-12-25T03:33:25.043Z,16.97
2017-12-25T03:35:53.732Z,18.73
2017-12-25T03:38:22.660Z,21.43
2017-12-25T03:40:52.122Z,26.20
2017-12-25T03:43:20.808Z,25.97
2017-12-25T03:45:49.764Z,23.63
2017-12-25T03:48:18.486Z,15.70
2017-12-25T03:50:47.124Z,20.57
2017-12-25T03:53:16.992Z,26.60
2017-12-25T03:55:45.563Z,19.90
2017-12-25T03:58:14.104Z,11.03
2017-12-25T04:00:44.645Z,9.10
2017-12-25T04:03:13.313Z,7.97
2017-12-25T04:05:42.782Z,8.90
2017-12-25T04:08:11.498Z,13.23
2017-12-25T04:10:40.960Z,10.70
2017-12-25T04:13:09.646Z,10.27
2017-12-25T04:15:38.441Z,35.30
2017-12-25T04:18:07.127Z,51.70
2017-12-25T04:20:35.704Z,35.97
2017-12-25T04:23:04.598Z,32.37
2017-12-25T04:25:33.247Z,33.93
2017-12-25T04:28:01.859Z,33.13
2017-12-25T04:30:30.707Z,35.07
2017-12-25T04:33:00.164Z,40.67
2017-12-25T04:35:28.850Z,35.60
2017-12-25T04:37:57.524Z,28.77
2017-12-25T04:40:26.228Z,23.33
2017-12-25T04:42:54.907Z,19.77
2017-12-25T04:45:23.638Z,14.90
2017-12-25T04:47:53.149Z,15.10
2017-12-25T04:50:22.501Z,13.50
2017-12-25T04:52:51.286Z,12.73
2017-12-25T04:55:19.909Z,13.67
2017-12-25T04:57:49.371Z,15.40
2017-12-25T05:00:18.464Z,14.13
2017-12-25T05:02:47.159Z,14.27
2017-12-25T05:05:15.845Z,13.67
2017-12-25T05:07:44.573Z,13.20
2017-12-25T05:10:13.991Z,13.37
2017-12-25T05:12:42.715Z,12.73
2017-12-25T05:15:11.676Z,13.53
2017-12-25T05:17:40.440Z,14.27
2017-12-25T05:20:09.012Z,12.30
2017-12-25T05:22:38.530Z,13.17
2017-12-25T05:25:07.948Z,11.03
2017-12-25T05:27:36.672Z,10.97
2017-12-25T05:30:05.362Z,9.87
2017-12-25T05:32:34.045Z,8.70
2017-12-25T05:35:02.631Z,8.00
2017-12-25T05:37:31.364Z,6.83
2017-12-25T05:40:00.826Z,11.27
2017-12-25T05:42:29.492Z,56.57
2017-12-25T05:44:58.396Z,17.13
2017-12-25T05:47:26.984Z,14.03
2017-12-25T05:49:55.625Z,13.60
2017-12-25T05:52:24.421Z,12.30
2017-12-25T05:54:53.138Z,11.73
2017-12-25T05:57:21.824Z,23.17
2017-12-25T05:59:50.626Z,35.80
2017-12-25T06:02:19.306Z,49.10
2017-12-25T06:04:47.992Z,63.17
2017-12-25T06:07:16.723Z,56.73
2017-12-25T06:09:46.175Z,61.57
2017-12-25T06:12:14.809Z,54.80
2017-12-25T06:14:44.370Z,56.13
2017-12-25T06:17:12.994Z,51.63
2017-12-25T06:19:42.455Z,52.60
2017-12-25T06:22:11.251Z,46.37
2017-12-25T06:24:40.135Z,47.57
2017-12-25T06:27:08.676Z,44.50
2017-12-25T06:29:38.636Z,41.37
2017-12-25T06:32:07.223Z,42.87
2017-12-25T06:34:35.800Z,38.77
2017-12-25T06:37:05.615Z,37.73
2017-12-25T06:39:34.301Z,36.37
2017-12-25T06:42:02.887Z,36.13
2017-12-25T06:44:31.614Z,35.97
2017-12-25T06:47:01.072Z,36.00
2017-12-25T06:49:29.701Z,59.83
2017-12-25T06:51:59.474Z,52.93
2017-12-25T06:54:30.564Z,46.77
2017-12-25T06:56:59.603Z,55.97
2017-12-25T06:59:29.063Z,60.33
2017-12-25T07:01:58.372Z,78.37
2017-12-25T07:04:27.007Z,82.63
2017-12-25T07:06:56.469Z,59.70
2017-12-25T07:09:25.331Z,48.77
2017-12-25T07:11:54.028Z,46.60
2017-12-25T07:14:22.713Z,42.70
2017-12-25T07:16:51.746Z,38.80
2017-12-25T07:19:21.204Z,34.87
2017-12-25T07:21:49.832Z,33.57
2017-12-25T07:24:19.352Z,28.80
2017-12-25T07:26:48.799Z,12.80
2017-12-25T07:29:17.340Z,10.10
2017-12-25T07:31:46.003Z,7.73
2017-12-25T07:34:15.469Z,6.07
2017-12-25T07:36:44.114Z,6.43
2017-12-25T07:39:13.106Z,9.00
2017-12-25T07:41:43.396Z,5.97
2017-12-25T07:44:12.066Z,8.73
2017-12-25T07:46:41.049Z,68.50
2017-12-25T07:49:09.636Z,59.60
2017-12-25T07:51:38.322Z,44.13
2017-12-25T07:54:07.216Z,18.23
2017-12-25T07:56:35.792Z,16.23
2017-12-25T07:59:04.478Z,35.23
2017-12-25T08:01:33.689Z,49.57
2017-12-25T08:04:02.414Z,55.50
2017-12-25T08:06:31.874Z,73.33
2017-12-25T08:09:00.965Z,54.67
2017-12-25T08:11:29.639Z,52.70
2017-12-25T08:13:58.338Z,53.27
2017-12-25T08:16:27.123Z,52.63
2017-12-25T08:18:55.768Z,33.70
2017-12-25T08:21:24.495Z,39.90
2017-12-25T08:23:53.298Z,40.27
2017-12-25T08:26:22.076Z,26.70
2017-12-25T08:28:50.715Z,20.90
2017-12-25T08:31:20.160Z,14.70
2017-12-25T08:33:48.844Z,14.27
2017-12-25T08:36:17.493Z,15.03
2017-12-25T08:38:46.524Z,23.27
2017-12-25T08:41:15.180Z,20.43
2017-12-25T08:43:43.899Z,28.47
2017-12-25T08:46:12.792Z,25.60
2017-12-25T08:48:41.477Z,20.17
2017-12-25T08:51:10.056Z,24.77
2017-12-25T08:53:38.749Z,39.50
2017-12-25T08:56:07.388Z,32.03
2017-12-25T08:58:36.834Z,28.30
2017-12-25T09:01:05.524Z,41.00
2017-12-25T09:03:34.088Z,30.27
2017-12-25T09:06:02.792Z,20.90
2017-12-25T09:08:31.981Z,19.17
2017-12-25T09:11:00.669Z,19.10
2017-12-25T09:13:29.354Z,14.30
2017-12-25T09:15:58.155Z,18.03
2017-12-25T09:18:27.574Z,23.20
2017-12-25T09:20:56.133Z,29.33
2017-12-25T09:23:24.832Z,19.40
2017-12-25T09:25:54.287Z,19.40
2017-12-25T09:28:22.974Z,15.60
2017-12-25T09:30:51.758Z,14.93
2017-12-25T09:33:20.408Z,20.13
2017-12-25T09:35:49.129Z,12.67
2017-12-25T09:38:18.025Z,14.43
2017-12-25T09:40:46.717Z,14.97
2017-12-25T09:43:15.396Z,15.27
2017-12-25T09:45:44.180Z,23.63
2017-12-25T09:48:12.866Z,12.93
2017-12-25T09:50:41.416Z,13.43
2017-12-25T09:53:10.238Z,16.70
2017-12-25T09:55:38.924Z,10.60
2017-12-25T09:58:07.566Z,10.17
2017-12-25T10:00:36.559Z,14.17
2017-12-25T10:03:05.249Z,13.80
2017-12-25T10:05:33.974Z,16.17
2017-12-25T10:08:02.769Z,19.50
2017-12-25T10:10:31.454Z,14.90
2017-12-25T10:13:00.033Z,14.47
2017-12-25T10:15:28.760Z,15.03
2017-12-25T10:17:58.182Z,14.40
2017-12-25T10:20:26.737Z,14.53
2017-12-25T10:22:55.696Z,14.33
2017-12-25T10:25:24.287Z,13.23
2017-12-25T10:27:52.930Z,13.07
2017-12-25T10:30:21.922Z,13.33
2017-12-25T10:32:50.649Z,24.47
2017-12-25T10:35:19.359Z,22.33
2017-12-25T10:37:48.228Z,31.73
2017-12-25T10:40:16.866Z,22.80
2017-12-25T10:42:46.368Z,18.47
2017-12-25T10:45:15.098Z,17.97
2017-12-25T10:47:43.688Z,12.50
2017-12-25T10:50:12.276Z,8.93
2017-12-25T10:52:41.011Z,7.80
2017-12-25T10:55:09.743Z,12.10
2017-12-25T10:57:38.527Z,10.77
2017-12-25T11:00:07.214Z,7.80
2017-12-25T11:02:35.814Z,8.23
2017-12-25T11:05:04.584Z,9.67
2017-12-25T11:07:33.570Z,10.73
2017-12-25T11:10:02.263Z,15.57
2017-12-25T11:12:30.905Z,14.07
2017-12-25T11:14:59.942Z,13.23
2017-12-25T11:17:28.528Z,15.43
2017-12-25T11:19:57.076Z,15.87
2017-12-25T11:22:26.000Z,14.87
2017-12-25T11:24:54.646Z,13.67
2017-12-25T11:27:23.371Z,12.60
2017-12-25T11:29:52.532Z,15.30
2017-12-25T11:32:21.259Z,14.97
2017-12-25T11:34:49.944Z,14.13
2017-12-25T11:37:18.759Z,13.10
2017-12-25T11:39:48.504Z,12.13
2017-12-25T11:42:17.329Z,8.87
2017-12-25T11:44:46.225Z,11.23
2017-12-25T11:47:14.910Z,9.73
2017-12-25T11:49:43.551Z,12.87
2017-12-25T11:52:12.644Z,12.80
2017-12-25T11:54:41.372Z,8.93
2017-12-25T11:59:39.874Z,10.63
2017-12-25T12:02:08.515Z,10.37
2017-12-25T12:04:37.246Z,14.13
2017-12-25T12:07:07.118Z,17.70
2017-12-25T12:09:36.095Z,11.90
2017-12-25T12:12:05.418Z,9.70
2017-12-25T12:14:34.349Z,12.33
2017-12-25T12:17:02.925Z,14.23
2017-12-25T12:19:31.609Z,18.47
2017-12-25T12:22:00.405Z,14.00
2017-12-25T12:24:29.190Z,21.53
2017-12-25T12:26:57.870Z,16.97
2017-12-25T12:29:26.618Z,9.60
2017-12-25T12:31:55.346Z,11.50
2017-12-25T12:34:24.035Z,12.87
2017-12-25T12:36:53.032Z,16.17
2017-12-25T12:39:21.606Z,13.87
2017-12-25T12:41:50.156Z,11.40
2017-12-25T12:44:18.984Z,10.60
2017-12-25T12:46:47.670Z,6.33
2017-12-25T12:49:16.250Z,6.60
2017-12-25T12:51:45.041Z,8.90
2017-12-25T12:54:13.726Z,9.00
2017-12-25T12:56:42.304Z,6.50
2017-12-25T12:59:11.005Z,8.87
2017-12-25T13:01:40.497Z,12.10
2017-12-25T13:04:09.182Z,10.37
2017-12-25T13:06:37.978Z,7.20
2017-12-25T13:09:06.650Z,10.33
2017-12-25T13:11:35.207Z,10.83
2017-12-25T13:14:04.216Z,10.87
2017-12-25T13:16:32.918Z,8.20
2017-12-25T13:19:01.550Z,8.07
2017-12-25T13:21:31.168Z,6.87
2017-12-25T13:23:59.897Z,6.33
2017-12-25T13:26:28.529Z,6.10
2017-12-25T13:28:57.997Z,4.83
2017-12-25T13:31:26.562Z,4.67
2017-12-25T13:33:55.255Z,4.77
2017-12-25T13:36:24.050Z,3.97
2017-12-25T13:38:52.625Z,5.60
2017-12-25T13:41:21.213Z,4.80
2017-12-25T13:43:49.906Z,5.60
2017-12-25T13:46:18.467Z,6.07
2017-12-25T13:48:47.165Z,4.57
2017-12-25T13:51:15.864Z,6.27
2017-12-25T13:53:44.578Z,4.90
2017-12-25T13:56:14.041Z,4.37
2017-12-25T13:58:42.888Z,5.43
2017-12-25T14:01:11.620Z,4.90
2017-12-25T14:03:40.307Z,4.80
2017-12-25T14:06:09.091Z,4.77
2017-12-25T14:08:37.680Z,6.03
2017-12-25T14:11:06.264Z,9.13
2017-12-25T14:13:36.279Z,14.70
2017-12-25T14:16:04.964Z,12.00
2017-12-25T14:18:33.609Z,7.13
2017-12-25T14:21:02.335Z,8.53
2017-12-25T14:23:31.052Z,10.87
2017-12-25T14:25:59.687Z,12.23
2017-12-25T14:28:29.441Z,9.33
2017-12-25T14:30:58.028Z,11.73
2017-12-25T14:33:26.763Z,11.90
2017-12-25T14:35:56.125Z,35.57
2017-12-25T14:38:24.801Z,26.77
2017-12-25T14:40:53.484Z,15.13
2017-12-25T14:43:22.279Z,14.70
2017-12-25T14:45:50.964Z,14.53
2017-12-25T14:48:19.650Z,10.10
2017-12-25T14:50:48.533Z,11.60
2017-12-25T14:53:17.219Z,19.10
2017-12-25T14:55:46.026Z,17.27
2017-12-25T14:58:14.744Z,11.97
2017-12-25T15:00:44.162Z,16.43
2017-12-25T15:03:12.884Z,14.73
2017-12-25T15:05:41.476Z,14.70
2017-12-25T15:08:10.256Z,14.80
2017-12-25T15:10:38.941Z,35.30
2017-12-25T15:13:07.674Z,28.03
2017-12-25T15:15:37.136Z,34.77
2017-12-25T15:18:05.712Z,29.70
2017-12-25T15:20:34.506Z,37.00
2017-12-25T15:23:03.192Z,35.27
2017-12-25T15:25:31.816Z,41.97
2017-12-25T15:28:01.485Z,43.07
2017-12-25T15:30:30.128Z,40.17
2017-12-25T15:32:58.757Z,32.50
2017-12-25T15:35:27.543Z,32.03
2017-12-25T15:37:56.181Z,37.00
2017-12-25T15:40:24.875Z,30.67
2017-12-25T15:42:53.842Z,33.63
2017-12-25T15:45:23.261Z,37.73
2017-12-25T15:47:51.990Z,43.10
2017-12-25T15:50:20.946Z,47.33
2017-12-25T15:52:49.639Z,51.97
2017-12-25T15:55:18.355Z,64.37
2017-12-25T15:57:47.149Z,63.10
2017-12-25T16:00:15.790Z,65.97
2017-12-25T16:02:44.347Z,66.47
2017-12-25T16:05:14.018Z,59.10
2017-12-25T16:07:42.703Z,70.13
2017-12-25T16:10:11.289Z,79.60
2017-12-25T16:12:40.232Z,73.60
2017-12-25T16:15:09.651Z,75.20
2017-12-25T16:17:38.367Z,67.10
2017-12-25T16:20:07.262Z,33.10
2017-12-25T16:22:36.046Z,19.50
2017-12-25T16:25:04.841Z,23.20
2017-12-25T16:27:33.517Z,23.00
2017-12-25T16:30:02.060Z,25.60
2017-12-25T16:32:30.787Z,20.33
2017-12-25T16:34:59.583Z,21.50
2017-12-25T16:37:28.158Z,40.53
2017-12-25T16:39:56.844Z,32.27
2017-12-25T16:42:25.698Z,29.33
2017-12-25T16:44:54.424Z,26.97
2017-12-25T16:47:23.108Z,69.57
2017-12-25T16:49:52.249Z,84.87
2017-12-25T16:52:21.669Z,109.40
2017-12-25T16:54:50.395Z,70.47
2017-12-25T16:57:19.288Z,57.93
2017-12-25T16:59:47.865Z,72.93
2017-12-25T17:02:16.516Z,79.50
2017-12-25T17:04:45.237Z,124.13
2017-12-25T17:07:13.821Z,274.17
2017-12-25T17:09:42.508Z,263.47
2017-12-25T17:12:11.392Z,229.37
2017-12-25T17:14:39.979Z,177.90
2017-12-25T17:17:08.623Z,149.67
2017-12-25T17:19:37.363Z,163.57
2017-12-25T17:22:06.034Z,159.13
2017-12-25T17:24:34.720Z,140.73
2017-12-25T17:27:03.645Z,134.67
2017-12-25T17:29:33.012Z,104.37
2017-12-25T17:32:01.698Z,150.70
2017-12-25T17:34:30.648Z,136.57
2017-12-25T17:36:59.378Z,115.30
2017-12-25T17:39:28.035Z,79.27
2017-12-25T17:41:57.001Z,66.40
2017-12-25T17:44:26.465Z,70.60
2017-12-25T17:46:55.041Z,55.43
2017-12-25T17:49:23.827Z,54.67
2017-12-25T17:51:52.523Z,65.53
2017-12-25T17:54:21.208Z,128.13
2017-12-25T17:56:50.129Z,116.00
2017-12-25T17:59:18.780Z,146.60
2017-12-25T18:01:47.461Z,199.17
2017-12-25T18:04:16.355Z,217.63
2017-12-25T18:06:44.981Z,175.67
2017-12-25T18:09:14.438Z,163.03
2017-12-25T18:11:43.145Z,145.23
2017-12-25T18:14:12.632Z,129.07
2017-12-25T18:16:41.318Z,129.10
2017-12-25T18:19:10.272Z,146.53
2017-12-25T18:21:38.996Z,210.60
2017-12-25T18:24:07.582Z,149.23
2017-12-25T18:26:36.222Z,124.63
2017-12-25T18:29:04.954Z,121.80
2017-12-25T18:31:33.633Z,129.77
2017-12-25T18:34:02.324Z,162.87
2017-12-25T18:36:31.011Z,144.63
2017-12-25T18:38:59.565Z,162.73
2017-12-25T18:41:28.432Z,183.97
2017-12-25T18:43:57.877Z,175.57
2017-12-25T18:46:26.563Z,168.50
2017-12-25T18:48:55.712Z,173.53
2017-12-25T18:51:24.450Z,204.10
2017-12-25T18:53:53.849Z,196.53
2017-12-25T18:56:22.584Z,224.20
2017-12-25T18:58:52.043Z,225.60
2017-12-25T19:01:20.721Z,256.90
2017-12-25T19:03:49.466Z,350.00
2017-12-25T19:06:18.200Z,357.67
2017-12-25T19:08:46.852Z,344.17
2017-12-25T19:11:15.876Z,213.40
2017-12-25T19:13:44.463Z,77.70
2017-12-25T19:16:13.149Z,81.37
2017-12-25T19:18:42.234Z,73.57
2017-12-25T19:21:10.828Z,65.90
2017-12-25T19:23:39.422Z,58.67
2017-12-25T19:26:08.099Z,37.93
2017-12-25T19:28:36.785Z,35.70
2017-12-25T19:31:05.461Z,26.30
2017-12-25T19:33:34.564Z,22.97
2017-12-25T19:36:03.249Z,22.53
2017-12-25T19:38:31.831Z,16.37
2017-12-25T19:41:00.928Z,16.50
2017-12-25T19:43:29.553Z,16.90
2017-12-25T19:45:59.011Z,17.97
2017-12-25T19:48:28.003Z,14.97
2017-12-25T19:50:56.546Z,17.47
2017-12-25T19:53:25.276Z,16.33
2017-12-25T19:55:53.961Z,20.30
2017-12-25T19:58:22.648Z,20.77
2017-12-25T20:00:51.275Z,30.37
2017-12-25T20:03:20.731Z,32.23
2017-12-25T20:05:49.417Z,32.13
2017-12-25T20:08:18.054Z,38.23
2017-12-25T20:10:47.710Z,33.13
2017-12-25T20:13:16.396Z,30.00
2017-12-25T20:15:45.032Z,30.50
2017-12-25T20:18:14.612Z,31.40
2017-12-25T20:20:43.274Z,27.07
2017-12-25T20:23:11.961Z,29.07
2017-12-25T20:25:41.051Z,35.33
2017-12-25T20:28:09.738Z,26.70
2017-12-25T20:30:38.424Z,22.43
2017-12-25T20:33:07.219Z,16.00
2017-12-25T20:35:35.905Z,15.87
2017-12-25T20:38:04.540Z,14.77
2017-12-25T20:40:34.360Z,16.50
2017-12-25T20:43:03.081Z,15.27
2017-12-25T20:45:31.668Z,12.40
2017-12-25T20:48:00.637Z,12.53
2017-12-25T20:50:30.055Z,13.17
2017-12-25T20:53:03.075Z,14.33
2017-12-25T20:55:32.678Z,14.87
2017-12-25T20:58:01.445Z,19.10
2017-12-25T21:00:30.437Z,14.63
2017-12-25T21:02:59.167Z,10.63
2017-12-25T21:05:27.967Z,9.03
2017-12-25T21:07:57.412Z,8.60
2017-12-25T21:10:26.097Z,9.67
2017-12-25T21:12:54.783Z,10.00
2017-12-25T21:15:23.656Z,9.43
2017-12-25T21:17:52.299Z,11.30
2017-12-25T21:20:21.760Z,9.23
2017-12-25T21:22:50.714Z,9.60
2017-12-25T21:25:19.442Z,10.07
2017-12-25T21:27:48.126Z,9.63
2017-12-25T21:30:17.118Z,9.80
2017-12-25T21:32:45.756Z,9.37
2017-12-25T21:35:14.296Z,8.53
2017-12-25T21:37:43.789Z,10.07
2017-12-25T21:40:13.255Z,15.07
2017-12-25T21:42:41.991Z,11.87
2017-12-25T21:45:11.448Z,10.50
2017-12-25T21:47:40.135Z,11.63
2017-12-25T21:50:08.709Z,13.07
2017-12-25T21:52:37.847Z,11.70
2017-12-25T21:55:07.311Z,8.67
2017-12-25T21:57:35.958Z,13.20
2017-12-25T22:00:04.793Z,9.90
2017-12-25T22:02:33.367Z,9.57
2017-12-25T22:05:01.957Z,9.63
2017-12-25T22:07:30.907Z,11.83
2017-12-25T22:09:59.634Z,7.97
2017-12-25T22:12:28.320Z,6.80
2017-12-25T22:14:56.924Z,8.13
2017-12-25T22:17:25.522Z,7.60
2017-12-25T22:19:54.214Z,8.43
2017-12-25T22:22:23.779Z,8.83
2017-12-25T22:24:52.462Z,9.40
2017-12-25T22:27:21.146Z,12.87
2017-12-25T22:29:50.139Z,17.60
2017-12-25T22:32:18.825Z,19.67
2017-12-25T22:34:47.475Z,18.80
2017-12-25T22:37:16.196Z,19.87
2017-12-25T22:39:44.835Z,26.90
2017-12-25T22:42:13.568Z,14.63
2017-12-25T22:44:42.363Z,9.17
2017-12-25T22:47:11.049Z,7.00
2017-12-25T22:49:39.728Z,7.87
2017-12-25T22:52:08.474Z,8.30
2017-12-25T22:54:37.106Z,7.67
2017-12-25T22:57:05.756Z,9.77
2017-12-25T22:59:34.784Z,10.47
2017-12-25T23:02:03.360Z,7.90
2017-12-25T23:04:32.047Z,9.23
2017-12-25T23:07:00.731Z,10.67
2017-12-25T23:09:29.373Z,17.67
2017-12-25T23:11:58.103Z,14.83
2017-12-25T23:14:26.691Z,26.20
2017-12-25T23:16:55.377Z,25.67
2017-12-25T23:19:23.952Z,26.50
2017-12-25T23:21:52.812Z,26.97
2017-12-25T23:24:21.532Z,24.83
2017-12-25T23:26:50.219Z,40.20
2017-12-25T23:29:19.320Z,54.33
2017-12-25T23:31:47.896Z,48.70
2017-12-25T23:34:16.582Z,42.30
2017-12-25T23:36:45.576Z,33.73
2017-12-25T23:39:14.218Z,39.97
2017-12-25T23:41:42.947Z,28.13
2017-12-25T23:44:11.741Z,26.47
2017-12-25T23:46:40.427Z,15.53
2017-12-25T23:49:09.112Z,21.10
2017-12-25T23:51:37.799Z,32.47
2017-12-25T23:54:06.485Z,18.10
2017-12-25T23:56:35.171Z,17.67
2017-12-25T23:59:03.903Z,19.17
